sensor_id;sensor_type;location;lat;lon;timestamp;P1;durP1;ratioP1;P2;durP2;ratioP2
38725;SDS011;24474;48.906;8.808;2022-10-20T00:01:04;18.20;;;15.45;;
38725;SDS011;24474;48.906;8.808;2022-10-20T00:03:31;21.33;;;16.40;;
38725;SDS011;24474;48.906;8.808;2022-10-20T00:06:07;17.10;;;15.30;;
38725;SDS011;24474;48.906;8.808;2022-10-20T00:08:37;17.35;;;15.60;;
38725;SDS011;24474;48.906;8.808;2022-10-20T00:11:04;17.98;;;16.05;;
38725;SDS011;24474;48.906;8.808;2022-10-20T00:13:31;18.05;;;15.98;;
38725;SDS011;24474;48.906;8.808;2022-10-20T00:15:59;18.90;;;16.77;;
38725;SDS011;24474;48.906;8.808;2022-10-20T00:18:25;16.42;;;14.73;;
38725;SDS011;24474;48.906;8.808;2022-10-20T00:20:51;17.40;;;15.30;;
38725;SDS011;24474;48.906;8.808;2022-10-20T00:23:17;17.58;;;15.43;;
38725;SDS011;24474;48.906;8.808;2022-10-20T00:25:43;17.35;;;15.52;;
38725;SDS011;24474;48.906;8.808;2022-10-20T00:28:08;20.85;;;15.80;;
38725;SDS011;24474;48.906;8.808;2022-10-20T00:30:34;19.27;;;16.38;;
38725;SDS011;24474;48.906;8.808;2022-10-20T00:33:01;19.35;;;16.27;;
38725;SDS011;24474;48.906;8.808;2022-10-20T00:35:27;17.90;;;15.20;;
38725;SDS011;24474;48.906;8.808;2022-10-20T00:37:54;19.85;;;16.23;;
38725;SDS011;24474;48.906;8.808;2022-10-20T00:40:19;19.02;;;16.30;;
38725;SDS011;24474;48.906;8.808;2022-10-20T00:42:45;18.25;;;16.33;;
38725;SDS011;24474;48.906;8.808;2022-10-20T00:45:16;22.77;;;16.95;;
38725;SDS011;24474;48.906;8.808;2022-10-20T00:47:44;21.15;;;17.23;;
38725;SDS011;24474;48.906;8.808;2022-10-20T00:52:43;21.70;;;18.17;;
38725;SDS011;24474;48.906;8.808;2022-10-20T00:55:11;20.13;;;15.70;;
38725;SDS011;24474;48.906;8.808;2022-10-20T00:57:39;22.13;;;16.00;;
38725;SDS011;24474;48.906;8.808;2022-10-20T01:00:09;18.02;;;16.08;;
38725;SDS011;24474;48.906;8.808;2022-10-20T01:02:35;19.02;;;16.25;;
38725;SDS011;24474;48.906;8.808;2022-10-20T01:05:01;18.83;;;15.93;;
38725;SDS011;24474;48.906;8.808;2022-10-20T01:07:27;23.42;;;17.73;;
38725;SDS011;24474;48.906;8.808;2022-10-20T01:09:53;18.70;;;16.08;;
38725;SDS011;24474;48.906;8.808;2022-10-20T01:28:25;19.48;;;17.27;;
38725;SDS011;24474;48.906;8.808;2022-10-20T01:30:58;20.70;;;18.48;;
38725;SDS011;24474;48.906;8.808;2022-10-20T01:33:36;22.27;;;16.80;;
38725;SDS011;24474;48.906;8.808;2022-10-20T01:38:55;20.05;;;17.70;;
38725;SDS011;24474;48.906;8.808;2022-10-20T01:41:33;21.67;;;17.02;;
38725;SDS011;24474;48.906;8.808;2022-10-20T01:44:04;21.13;;;17.88;;
38725;SDS011;24474;48.906;8.808;2022-10-20T01:46:32;23.48;;;17.95;;
38725;SDS011;24474;48.906;8.808;2022-10-20T01:49:01;25.38;;;18.65;;
38725;SDS011;24474;48.906;8.808;2022-10-20T01:51:30;25.65;;;19.70;;
38725;SDS011;24474;48.906;8.808;2022-10-20T01:53:56;22.33;;;18.88;;
38725;SDS011;24474;48.906;8.808;2022-10-20T01:56:56;23.50;;;19.08;;
38725;SDS011;24474;48.906;8.808;2022-10-20T02:02:40;24.15;;;19.63;;
38725;SDS011;24474;48.906;8.808;2022-10-20T02:07:46;25.98;;;20.45;;
38725;SDS011;24474;48.906;8.808;2022-10-20T02:10:17;28.70;;;20.50;;
38725;SDS011;24474;48.906;8.808;2022-10-20T02:12:46;22.52;;;17.92;;
38725;SDS011;24474;48.906;8.808;2022-10-20T02:15:17;21.75;;;17.67;;
38725;SDS011;24474;48.906;8.808;2022-10-20T02:17:46;21.95;;;17.65;;
38725;SDS011;24474;48.906;8.808;2022-10-20T02:20:17;21.20;;;17.48;;
38725;SDS011;24474;48.906;8.808;2022-10-20T02:22:44;22.00;;;18.30;;
38725;SDS011;24474;48.906;8.808;2022-10-20T02:25:10;21.98;;;18.40;;
38725;SDS011;24474;48.906;8.808;2022-10-20T02:27:37;21.98;;;17.33;;
38725;SDS011;24474;48.906;8.808;2022-10-20T02:30:06;23.95;;;19.58;;
38725;SDS011;24474;48.906;8.808;2022-10-20T02:32:34;21.95;;;19.50;;
38725;SDS011;24474;48.906;8.808;2022-10-20T02:35:09;26.58;;;20.30;;
38725;SDS011;24474;48.906;8.808;2022-10-20T02:37:38;25.20;;;20.40;;
38725;SDS011;24474;48.906;8.808;2022-10-20T02:40:04;22.75;;;17.83;;
38725;SDS011;24474;48.906;8.808;2022-10-20T02:42:30;23.17;;;18.90;;
38725;SDS011;24474;48.906;8.808;2022-10-20T02:44:55;20.33;;;16.90;;
38725;SDS011;24474;48.906;8.808;2022-10-20T02:47:21;21.70;;;18.65;;
38725;SDS011;24474;48.906;8.808;2022-10-20T02:49:47;23.73;;;18.75;;
38725;SDS011;24474;48.906;8.808;2022-10-20T02:52:13;20.67;;;17.48;;
38725;SDS011;24474;48.906;8.808;2022-10-20T02:54:39;20.88;;;17.63;;
38725;SDS011;24474;48.906;8.808;2022-10-20T02:57:04;26.40;;;18.08;;
38725;SDS011;24474;48.906;8.808;2022-10-20T02:59:30;22.65;;;19.70;;
38725;SDS011;24474;48.906;8.808;2022-10-20T03:01:56;24.58;;;19.48;;
38725;SDS011;24474;48.906;8.808;2022-10-20T03:04:21;22.42;;;18.33;;
38725;SDS011;24474;48.906;8.808;2022-10-20T03:06:47;24.77;;;20.50;;
38725;SDS011;24474;48.906;8.808;2022-10-20T03:09:13;22.35;;;18.52;;
38725;SDS011;24474;48.906;8.808;2022-10-20T03:11:38;25.63;;;19.02;;
38725;SDS011;24474;48.906;8.808;2022-10-20T03:14:04;22.55;;;19.00;;
38725;SDS011;24474;48.906;8.808;2022-10-20T03:16:30;21.58;;;18.55;;
38725;SDS011;24474;48.906;8.808;2022-10-20T03:18:55;23.52;;;19.25;;
38725;SDS011;24474;48.906;8.808;2022-10-20T03:21:21;24.77;;;19.92;;
38725;SDS011;24474;48.906;8.808;2022-10-20T03:23:47;25.83;;;19.67;;
38725;SDS011;24474;48.906;8.808;2022-10-20T03:26:13;25.70;;;19.63;;
38725;SDS011;24474;48.906;8.808;2022-10-20T03:28:39;22.90;;;18.85;;
38725;SDS011;24474;48.906;8.808;2022-10-20T03:31:05;25.45;;;19.58;;
38725;SDS011;24474;48.906;8.808;2022-10-20T03:33:31;26.42;;;20.17;;
38725;SDS011;24474;48.906;8.808;2022-10-20T03:35:57;26.83;;;19.33;;
38725;SDS011;24474;48.906;8.808;2022-10-20T03:38:23;23.88;;;19.67;;
38725;SDS011;24474;48.906;8.808;2022-10-20T03:40:48;22.75;;;19.27;;
38725;SDS011;24474;48.906;8.808;2022-10-20T03:43:14;26.58;;;19.23;;
38725;SDS011;24474;48.906;8.808;2022-10-20T03:45:40;24.23;;;19.45;;
38725;SDS011;24474;48.906;8.808;2022-10-20T03:48:06;23.10;;;19.42;;
38725;SDS011;24474;48.906;8.808;2022-10-20T03:50:32;24.05;;;19.63;;
38725;SDS011;24474;48.906;8.808;2022-10-20T03:52:58;26.23;;;19.92;;
38725;SDS011;24474;48.906;8.808;2022-10-20T03:55:24;23.85;;;18.70;;
38725;SDS011;24474;48.906;8.808;2022-10-20T03:57:49;25.60;;;19.67;;
38725;SDS011;24474;48.906;8.808;2022-10-20T04:00:15;25.38;;;20.33;;
38725;SDS011;24474;48.906;8.808;2022-10-20T04:02:42;22.85;;;19.20;;
38725;SDS011;24474;48.906;8.808;2022-10-20T04:05:12;24.02;;;19.33;;
38725;SDS011;24474;48.906;8.808;2022-10-20T04:07:41;23.60;;;19.90;;
38725;SDS011;24474;48.906;8.808;2022-10-20T04:10:08;28.63;;;20.80;;
38725;SDS011;24474;48.906;8.808;2022-10-20T04:12:34;24.40;;;18.80;;
38725;SDS011;24474;48.906;8.808;2022-10-20T04:15:00;21.75;;;19.40;;
38725;SDS011;24474;48.906;8.808;2022-10-20T04:17:26;24.20;;;19.48;;
38725;SDS011;24474;48.906;8.808;2022-10-20T04:19:52;22.83;;;18.27;;
38725;SDS011;24474;48.906;8.808;2022-10-20T04:22:17;25.38;;;20.13;;
38725;SDS011;24474;48.906;8.808;2022-10-20T04:24:43;25.92;;;19.70;;
38725;SDS011;24474;48.906;8.808;2022-10-20T04:27:09;23.67;;;19.10;;
38725;SDS011;24474;48.906;8.808;2022-10-20T04:29:34;22.88;;;18.65;;
38725;SDS011;24474;48.906;8.808;2022-10-20T04:32:00;26.83;;;20.63;;
38725;SDS011;24474;48.906;8.808;2022-10-20T04:34:25;23.55;;;18.15;;
38725;SDS011;24474;48.906;8.808;2022-10-20T04:36:51;25.23;;;20.52;;
38725;SDS011;24474;48.906;8.808;2022-10-20T04:39:17;25.40;;;20.23;;
38725;SDS011;24474;48.906;8.808;2022-10-20T04:41:44;23.95;;;19.30;;
38725;SDS011;24474;48.906;8.808;2022-10-20T04:44:10;25.83;;;19.73;;
38725;SDS011;24474;48.906;8.808;2022-10-20T04:46:35;25.00;;;20.25;;
38725;SDS011;24474;48.906;8.808;2022-10-20T04:49:01;27.50;;;20.20;;
38725;SDS011;24474;48.906;8.808;2022-10-20T04:51:27;26.38;;;19.15;;
38725;SDS011;24474;48.906;8.808;2022-10-20T04:53:53;27.13;;;19.90;;
38725;SDS011;24474;48.906;8.808;2022-10-20T04:56:19;24.92;;;19.52;;
38725;SDS011;24474;48.906;8.808;2022-10-20T04:58:49;26.55;;;20.50;;
38725;SDS011;24474;48.906;8.808;2022-10-20T05:01:20;28.65;;;21.90;;
38725;SDS011;24474;48.906;8.808;2022-10-20T05:03:47;28.60;;;21.75;;
38725;SDS011;24474;48.906;8.808;2022-10-20T05:06:17;28.00;;;21.02;;
38725;SDS011;24474;48.906;8.808;2022-10-20T05:08:55;27.17;;;21.15;;
38725;SDS011;24474;48.906;8.808;2022-10-20T05:11:25;29.17;;;22.23;;
38725;SDS011;24474;48.906;8.808;2022-10-20T05:13:52;28.25;;;20.90;;
38725;SDS011;24474;48.906;8.808;2022-10-20T05:16:20;25.00;;;21.77;;
38725;SDS011;24474;48.906;8.808;2022-10-20T05:18:46;26.25;;;21.30;;
38725;SDS011;24474;48.906;8.808;2022-10-20T05:21:17;26.38;;;20.92;;
38725;SDS011;24474;48.906;8.808;2022-10-20T05:26:11;26.30;;;20.90;;
38725;SDS011;24474;48.906;8.808;2022-10-20T05:28:38;25.88;;;21.25;;
38725;SDS011;24474;48.906;8.808;2022-10-20T05:31:07;28.80;;;21.10;;
38725;SDS011;24474;48.906;8.808;2022-10-20T05:33:33;23.60;;;19.13;;
38725;SDS011;24474;48.906;8.808;2022-10-20T05:36:10;25.70;;;20.05;;
38725;SDS011;24474;48.906;8.808;2022-10-20T05:38:37;26.25;;;18.52;;
38725;SDS011;24474;48.906;8.808;2022-10-20T05:41:08;26.30;;;21.23;;
38725;SDS011;24474;48.906;8.808;2022-10-20T05:43:41;26.98;;;20.50;;
38725;SDS011;24474;48.906;8.808;2022-10-20T05:46:24;26.40;;;20.80;;
38725;SDS011;24474;48.906;8.808;2022-10-20T05:49:19;25.45;;;20.13;;
38725;SDS011;24474;48.906;8.808;2022-10-20T05:51:47;29.17;;;20.60;;
38725;SDS011;24474;48.906;8.808;2022-10-20T05:54:13;25.40;;;19.88;;
38725;SDS011;24474;48.906;8.808;2022-10-20T05:56:39;28.48;;;20.42;;
38725;SDS011;24474;48.906;8.808;2022-10-20T05:59:06;26.08;;;21.17;;
38725;SDS011;24474;48.906;8.808;2022-10-20T06:01:34;27.13;;;21.13;;
38725;SDS011;24474;48.906;8.808;2022-10-20T06:04:05;27.38;;;21.55;;
38725;SDS011;24474;48.906;8.808;2022-10-20T06:06:33;29.58;;;20.83;;
38725;SDS011;24474;48.906;8.808;2022-10-20T06:08:59;24.98;;;19.08;;
38725;SDS011;24474;48.906;8.808;2022-10-20T06:11:25;27.65;;;20.67;;
38725;SDS011;24474;48.906;8.808;2022-10-20T06:13:51;26.67;;;21.35;;
38725;SDS011;24474;48.906;8.808;2022-10-20T06:16:21;24.80;;;20.27;;
38725;SDS011;24474;48.906;8.808;2022-10-20T06:18:48;24.58;;;19.73;;
38725;SDS011;24474;48.906;8.808;2022-10-20T06:21:16;29.95;;;21.23;;
38725;SDS011;24474;48.906;8.808;2022-10-20T06:23:42;26.58;;;20.60;;
38725;SDS011;24474;48.906;8.808;2022-10-20T06:26:26;28.45;;;20.42;;
38725;SDS011;24474;48.906;8.808;2022-10-20T06:28:55;24.92;;;20.02;;
38725;SDS011;24474;48.906;8.808;2022-10-20T06:31:22;29.00;;;22.48;;
38725;SDS011;24474;48.906;8.808;2022-10-20T06:33:48;31.00;;;22.63;;
38725;SDS011;24474;48.906;8.808;2022-10-20T06:36:16;27.45;;;20.98;;
38725;SDS011;24474;48.906;8.808;2022-10-20T06:38:42;29.90;;;22.35;;
38725;SDS011;24474;48.906;8.808;2022-10-20T06:41:09;25.65;;;21.30;;
38725;SDS011;24474;48.906;8.808;2022-10-20T06:43:39;28.02;;;21.55;;
38725;SDS011;24474;48.906;8.808;2022-10-20T06:46:06;26.67;;;21.20;;
38725;SDS011;24474;48.906;8.808;2022-10-20T06:48:35;26.67;;;20.13;;
38725;SDS011;24474;48.906;8.808;2022-10-20T06:51:05;28.27;;;20.83;;
38725;SDS011;24474;48.906;8.808;2022-10-20T06:53:34;28.58;;;20.75;;
38725;SDS011;24474;48.906;8.808;2022-10-20T06:56:07;27.35;;;21.00;;
38725;SDS011;24474;48.906;8.808;2022-10-20T06:58:38;30.38;;;21.17;;
38725;SDS011;24474;48.906;8.808;2022-10-20T07:01:06;26.75;;;21.20;;
38725;SDS011;24474;48.906;8.808;2022-10-20T07:03:34;28.63;;;20.08;;
38725;SDS011;24474;48.906;8.808;2022-10-20T07:06:01;26.63;;;19.58;;
38725;SDS011;24474;48.906;8.808;2022-10-20T07:08:30;27.52;;;19.60;;
38725;SDS011;24474;48.906;8.808;2022-10-20T07:11:00;28.27;;;19.25;;
38725;SDS011;24474;48.906;8.808;2022-10-20T07:13:26;25.60;;;19.10;;
38725;SDS011;24474;48.906;8.808;2022-10-20T07:15:53;23.42;;;18.88;;
38725;SDS011;24474;48.906;8.808;2022-10-20T07:18:20;22.60;;;18.25;;
38725;SDS011;24474;48.906;8.808;2022-10-20T07:20:46;23.05;;;18.63;;
38725;SDS011;24474;48.906;8.808;2022-10-20T07:23:11;24.55;;;20.23;;
38725;SDS011;24474;48.906;8.808;2022-10-20T07:25:37;23.27;;;18.63;;
38725;SDS011;24474;48.906;8.808;2022-10-20T07:28:02;25.95;;;20.17;;
38725;SDS011;24474;48.906;8.808;2022-10-20T07:30:28;24.40;;;18.30;;
38725;SDS011;24474;48.906;8.808;2022-10-20T07:32:54;27.25;;;20.00;;
38725;SDS011;24474;48.906;8.808;2022-10-20T07:35:20;26.67;;;19.17;;
38725;SDS011;24474;48.906;8.808;2022-10-20T07:37:45;23.35;;;18.42;;
38725;SDS011;24474;48.906;8.808;2022-10-20T07:40:11;27.05;;;20.23;;
38725;SDS011;24474;48.906;8.808;2022-10-20T07:42:37;26.95;;;19.48;;
38725;SDS011;24474;48.906;8.808;2022-10-20T07:45:03;23.38;;;19.83;;
38725;SDS011;24474;48.906;8.808;2022-10-20T07:47:29;23.85;;;18.45;;
38725;SDS011;24474;48.906;8.808;2022-10-20T07:49:54;22.73;;;18.65;;
38725;SDS011;24474;48.906;8.808;2022-10-20T07:52:20;25.92;;;18.58;;
38725;SDS011;24474;48.906;8.808;2022-10-20T07:54:46;22.40;;;18.25;;
38725;SDS011;24474;48.906;8.808;2022-10-20T07:57:11;23.98;;;18.88;;
38725;SDS011;24474;48.906;8.808;2022-10-20T07:59:37;28.67;;;20.15;;
38725;SDS011;24474;48.906;8.808;2022-10-20T08:02:02;27.20;;;19.38;;
38725;SDS011;24474;48.906;8.808;2022-10-20T08:04:28;25.00;;;18.83;;
38725;SDS011;24474;48.906;8.808;2022-10-20T08:06:56;24.58;;;19.27;;
38725;SDS011;24474;48.906;8.808;2022-10-20T08:09:22;24.00;;;19.20;;
38725;SDS011;24474;48.906;8.808;2022-10-20T08:11:48;28.67;;;19.70;;
38725;SDS011;24474;48.906;8.808;2022-10-20T08:14:13;25.17;;;18.85;;
38725;SDS011;24474;48.906;8.808;2022-10-20T08:16:39;23.55;;;18.25;;
38725;SDS011;24474;48.906;8.808;2022-10-20T08:19:04;24.08;;;18.70;;
38725;SDS011;24474;48.906;8.808;2022-10-20T08:21:30;26.48;;;18.63;;
38725;SDS011;24474;48.906;8.808;2022-10-20T08:23:56;22.42;;;17.67;;
38725;SDS011;24474;48.906;8.808;2022-10-20T08:26:23;23.67;;;17.38;;
38725;SDS011;24474;48.906;8.808;2022-10-20T08:28:50;24.23;;;17.75;;
38725;SDS011;24474;48.906;8.808;2022-10-20T08:31:18;22.48;;;18.45;;
38725;SDS011;24474;48.906;8.808;2022-10-20T08:33:44;22.90;;;17.55;;
38725;SDS011;24474;48.906;8.808;2022-10-20T08:36:11;21.58;;;16.52;;
38725;SDS011;24474;48.906;8.808;2022-10-20T08:38:38;19.98;;;15.95;;
38725;SDS011;24474;48.906;8.808;2022-10-20T08:41:05;20.08;;;16.38;;
38725;SDS011;24474;48.906;8.808;2022-10-20T08:43:39;18.77;;;15.52;;
38725;SDS011;24474;48.906;8.808;2022-10-20T08:46:05;20.67;;;17.08;;
38725;SDS011;24474;48.906;8.808;2022-10-20T08:48:35;21.37;;;15.43;;
38725;SDS011;24474;48.906;8.808;2022-10-20T08:51:01;19.52;;;16.77;;
38725;SDS011;24474;48.906;8.808;2022-10-20T08:53:27;23.67;;;15.48;;
38725;SDS011;24474;48.906;8.808;2022-10-20T08:55:57;21.58;;;15.20;;
38725;SDS011;24474;48.906;8.808;2022-10-20T08:58:23;17.67;;;14.30;;
38725;SDS011;24474;48.906;8.808;2022-10-20T09:00:58;19.98;;;14.43;;
38725;SDS011;24474;48.906;8.808;2022-10-20T09:03:29;19.73;;;15.13;;
38725;SDS011;24474;48.906;8.808;2022-10-20T09:06:15;17.65;;;14.70;;
38725;SDS011;24474;48.906;8.808;2022-10-20T09:08:41;15.70;;;13.55;;
38725;SDS011;24474;48.906;8.808;2022-10-20T09:11:10;21.77;;;14.65;;
38725;SDS011;24474;48.906;8.808;2022-10-20T09:13:41;17.50;;;12.85;;
38725;SDS011;24474;48.906;8.808;2022-10-20T09:18:37;19.83;;;13.87;;
38725;SDS011;24474;48.906;8.808;2022-10-20T09:21:21;16.92;;;12.98;;
38725;SDS011;24474;48.906;8.808;2022-10-20T09:23:50;17.70;;;12.82;;
38725;SDS011;24474;48.906;8.808;2022-10-20T09:26:19;17.33;;;13.25;;
38725;SDS011;24474;48.906;8.808;2022-10-20T09:29:10;17.73;;;13.20;;
38725;SDS011;24474;48.906;8.808;2022-10-20T09:34:25;15.77;;;12.35;;
38725;SDS011;24474;48.906;8.808;2022-10-20T09:39:36;16.83;;;12.38;;
38725;SDS011;24474;48.906;8.808;2022-10-20T09:42:24;17.35;;;12.85;;
38725;SDS011;24474;48.906;8.808;2022-10-20T09:45:22;15.35;;;12.50;;
38725;SDS011;24474;48.906;8.808;2022-10-20T09:48:00;15.90;;;12.48;;
38725;SDS011;24474;48.906;8.808;2022-10-20T09:50:36;15.93;;;13.18;;
38725;SDS011;24474;48.906;8.808;2022-10-20T09:53:05;15.50;;;12.75;;
38725;SDS011;24474;48.906;8.808;2022-10-20T09:55:50;17.20;;;11.75;;
38725;SDS011;24474;48.906;8.808;2022-10-20T09:58:27;16.00;;;12.23;;
38725;SDS011;24474;48.906;8.808;2022-10-20T10:03:39;17.95;;;12.13;;
38725;SDS011;24474;48.906;8.808;2022-10-20T10:06:30;14.23;;;11.05;;
38725;SDS011;24474;48.906;8.808;2022-10-20T10:12:15;13.75;;;11.10;;
38725;SDS011;24474;48.906;8.808;2022-10-20T10:17:40;14.70;;;10.93;;
38725;SDS011;24474;48.906;8.808;2022-10-20T10:22:49;11.93;;;9.57;;
38725;SDS011;24474;48.906;8.808;2022-10-20T10:25:26;14.70;;;9.35;;
38725;SDS011;24474;48.906;8.808;2022-10-20T10:27:57;11.30;;;9.40;;
38725;SDS011;24474;48.906;8.808;2022-10-20T10:30:26;16.95;;;10.90;;
38725;SDS011;24474;48.906;8.808;2022-10-20T10:32:56;13.35;;;9.60;;
38725;SDS011;24474;48.906;8.808;2022-10-20T10:38:05;12.82;;;9.27;;
38725;SDS011;24474;48.906;8.808;2022-10-20T10:43:52;11.18;;;8.82;;
38725;SDS011;24474;48.906;8.808;2022-10-20T10:46:27;13.60;;;8.82;;
38725;SDS011;24474;48.906;8.808;2022-10-20T10:55:13;13.73;;;8.57;;
38725;SDS011;24474;48.906;8.808;2022-10-20T11:00:41;14.20;;;8.30;;
38725;SDS011;24474;48.906;8.808;2022-10-20T11:03:47;12.57;;;7.90;;
38725;SDS011;24474;48.906;8.808;2022-10-20T11:06:37;11.98;;;8.60;;
38725;SDS011;24474;48.906;8.808;2022-10-20T11:15:24;14.02;;;8.95;;
38725;SDS011;24474;48.906;8.808;2022-10-20T11:21:24;9.90;;;8.68;;
38725;SDS011;24474;48.906;8.808;2022-10-20T11:24:55;15.18;;;9.25;;
38725;SDS011;24474;48.906;8.808;2022-10-20T11:27:25;12.82;;;8.75;;
38725;SDS011;24474;48.906;8.808;2022-10-20T11:30:17;12.70;;;8.23;;
38725;SDS011;24474;48.906;8.808;2022-10-20T11:32:55;13.15;;;8.70;;
38725;SDS011;24474;48.906;8.808;2022-10-20T11:38:49;14.13;;;9.70;;
38725;SDS011;24474;48.906;8.808;2022-10-20T11:41:39;13.85;;;9.05;;
38725;SDS011;24474;48.906;8.808;2022-10-20T11:44:20;10.20;;;7.93;;
38725;SDS011;24474;48.906;8.808;2022-10-20T11:47:55;10.95;;;7.68;;
38725;SDS011;24474;48.906;8.808;2022-10-20T11:50:10;12.95;;;7.93;;
38725;SDS011;24474;48.906;8.808;2022-10-20T11:52:40;8.32;;;7.32;;
38725;SDS011;24474;48.906;8.808;2022-10-20T11:55:39;9.32;;;6.82;;
38725;SDS011;24474;48.906;8.808;2022-10-20T12:07:24;10.07;;;6.90;;
38725;SDS011;24474;48.906;8.808;2022-10-20T12:10:02;12.20;;;6.80;;
38725;SDS011;24474;48.906;8.808;2022-10-20T12:15:48;9.30;;;6.53;;
38725;SDS011;24474;48.906;8.808;2022-10-20T12:18:37;10.75;;;6.43;;
38725;SDS011;24474;48.906;8.808;2022-10-20T12:24:41;8.10;;;6.07;;
38725;SDS011;24474;48.906;8.808;2022-10-20T12:27:20;10.15;;;5.95;;
38725;SDS011;24474;48.906;8.808;2022-10-20T12:30:02;9.45;;;6.20;;
38725;SDS011;24474;48.906;8.808;2022-10-20T12:32:57;10.98;;;6.47;;
38725;SDS011;24474;48.906;8.808;2022-10-20T12:39:13;15.55;;;6.97;;
38725;SDS011;24474;48.906;8.808;2022-10-20T12:42:02;9.27;;;6.47;;
38725;SDS011;24474;48.906;8.808;2022-10-20T12:44:39;11.65;;;5.90;;
38725;SDS011;24474;48.906;8.808;2022-10-20T12:47:07;11.13;;;6.00;;
38725;SDS011;24474;48.906;8.808;2022-10-20T12:49:39;10.23;;;6.28;;
38725;SDS011;24474;48.906;8.808;2022-10-20T12:52:18;10.13;;;6.13;;
38725;SDS011;24474;48.906;8.808;2022-10-20T12:55:02;11.15;;;6.18;;
38725;SDS011;24474;48.906;8.808;2022-10-20T12:57:43;11.63;;;5.95;;
38725;SDS011;24474;48.906;8.808;2022-10-20T13:02:52;13.13;;;6.97;;
38725;SDS011;24474;48.906;8.808;2022-10-20T13:08:22;10.57;;;5.78;;
38725;SDS011;24474;48.906;8.808;2022-10-20T13:14:42;12.93;;;6.75;;
38725;SDS011;24474;48.906;8.808;2022-10-20T13:19:42;10.20;;;6.28;;
38725;SDS011;24474;48.906;8.808;2022-10-20T13:25:14;13.07;;;6.43;;
38725;SDS011;24474;48.906;8.808;2022-10-20T13:27:48;18.02;;;7.18;;
38725;SDS011;24474;48.906;8.808;2022-10-20T13:30:18;11.07;;;7.10;;
38725;SDS011;24474;48.906;8.808;2022-10-20T13:33:06;10.10;;;6.88;;
38725;SDS011;24474;48.906;8.808;2022-10-20T13:35:56;14.40;;;6.90;;
38725;SDS011;24474;48.906;8.808;2022-10-20T13:39:05;7.72;;;5.93;;
38725;SDS011;24474;48.906;8.808;2022-10-20T13:50:15;8.85;;;4.93;;
38725;SDS011;24474;48.906;8.808;2022-10-20T13:52:45;8.30;;;5.28;;
38725;SDS011;24474;48.906;8.808;2022-10-20T13:55:24;9.00;;;5.10;;
38725;SDS011;24474;48.906;8.808;2022-10-20T13:57:53;7.20;;;4.68;;
38725;SDS011;24474;48.906;8.808;2022-10-20T14:00:52;8.10;;;4.60;;
38725;SDS011;24474;48.906;8.808;2022-10-20T14:03:25;9.07;;;4.20;;
38725;SDS011;24474;48.906;8.808;2022-10-20T14:05:51;11.07;;;5.13;;
38725;SDS011;24474;48.906;8.808;2022-10-20T14:08:19;7.75;;;4.78;;
38725;SDS011;24474;48.906;8.808;2022-10-20T14:13:26;8.13;;;4.60;;
38725;SDS011;24474;48.906;8.808;2022-10-20T14:15:57;7.35;;;4.55;;
38725;SDS011;24474;48.906;8.808;2022-10-20T14:18:34;9.18;;;5.13;;
38725;SDS011;24474;48.906;8.808;2022-10-20T14:21:04;8.07;;;5.15;;
38725;SDS011;24474;48.906;8.808;2022-10-20T14:23:34;12.35;;;8.00;;
38725;SDS011;24474;48.906;8.808;2022-10-20T14:26:04;11.75;;;6.18;;
38725;SDS011;24474;48.906;8.808;2022-10-20T14:28:34;7.95;;;5.53;;
38725;SDS011;24474;48.906;8.808;2022-10-20T14:31:02;8.40;;;6.25;;
38725;SDS011;24474;48.906;8.808;2022-10-20T14:33:29;8.75;;;6.75;;
38725;SDS011;24474;48.906;8.808;2022-10-20T14:35:59;8.70;;;6.40;;
38725;SDS011;24474;48.906;8.808;2022-10-20T14:41:01;10.73;;;7.75;;
38725;SDS011;24474;48.906;8.808;2022-10-20T14:43:46;9.30;;;6.60;;
38725;SDS011;24474;48.906;8.808;2022-10-20T14:46:30;7.97;;;5.60;;
38725;SDS011;24474;48.906;8.808;2022-10-20T14:49:13;10.93;;;5.93;;
38725;SDS011;24474;48.906;8.808;2022-10-20T14:51:59;6.60;;;4.90;;
38725;SDS011;24474;48.906;8.808;2022-10-20T14:59:34;20.13;;;12.93;;
38725;SDS011;24474;48.906;8.808;2022-10-20T15:04:42;11.30;;;7.60;;
38725;SDS011;24474;48.906;8.808;2022-10-20T15:07:15;10.82;;;6.68;;
38725;SDS011;24474;48.906;8.808;2022-10-20T15:09:55;8.70;;;6.32;;
38725;SDS011;24474;48.906;8.808;2022-10-20T15:15:35;10.18;;;5.65;;
38725;SDS011;24474;48.906;8.808;2022-10-20T15:18:16;10.18;;;5.82;;
38725;SDS011;24474;48.906;8.808;2022-10-20T15:20:46;12.38;;;6.13;;
38725;SDS011;24474;48.906;8.808;2022-10-20T15:23:15;9.82;;;6.95;;
38725;SDS011;24474;48.906;8.808;2022-10-20T15:28:38;8.70;;;6.22;;
38725;SDS011;24474;48.906;8.808;2022-10-20T15:33:38;14.88;;;10.95;;
38725;SDS011;24474;48.906;8.808;2022-10-20T15:36:11;10.63;;;9.00;;
38725;SDS011;24474;48.906;8.808;2022-10-20T15:38:39;13.23;;;10.75;;
38725;SDS011;24474;48.906;8.808;2022-10-20T15:41:12;14.05;;;10.32;;
38725;SDS011;24474;48.906;8.808;2022-10-20T15:43:39;10.60;;;8.57;;
38725;SDS011;24474;48.906;8.808;2022-10-20T15:46:04;16.45;;;8.23;;
38725;SDS011;24474;48.906;8.808;2022-10-20T15:48:32;13.43;;;7.18;;
38725;SDS011;24474;48.906;8.808;2022-10-20T15:51:03;16.73;;;7.10;;
38725;SDS011;24474;48.906;8.808;2022-10-20T15:53:44;9.10;;;7.03;;
38725;SDS011;24474;48.906;8.808;2022-10-20T15:56:13;7.63;;;5.78;;
38725;SDS011;24474;48.906;8.808;2022-10-20T15:58:41;8.45;;;5.30;;
38725;SDS011;24474;48.906;8.808;2022-10-20T16:01:06;8.98;;;5.97;;
38725;SDS011;24474;48.906;8.808;2022-10-20T16:06:09;9.07;;;6.10;;
38725;SDS011;24474;48.906;8.808;2022-10-20T16:08:39;9.93;;;6.40;;
38725;SDS011;24474;48.906;8.808;2022-10-20T16:11:07;9.57;;;6.90;;
38725;SDS011;24474;48.906;8.808;2022-10-20T16:13:34;9.52;;;7.07;;
38725;SDS011;24474;48.906;8.808;2022-10-20T16:16:04;11.88;;;8.05;;
38725;SDS011;24474;48.906;8.808;2022-10-20T16:18:32;11.98;;;8.60;;
38725;SDS011;24474;48.906;8.808;2022-10-20T16:21:03;11.77;;;9.40;;
38725;SDS011;24474;48.906;8.808;2022-10-20T16:23:30;11.32;;;8.13;;
38725;SDS011;24474;48.906;8.808;2022-10-20T16:25:56;11.90;;;8.13;;
38725;SDS011;24474;48.906;8.808;2022-10-20T16:28:22;8.85;;;6.20;;
38725;SDS011;24474;48.906;8.808;2022-10-20T16:30:59;9.45;;;6.10;;
38725;SDS011;24474;48.906;8.808;2022-10-20T16:33:35;11.50;;;6.68;;
38725;SDS011;24474;48.906;8.808;2022-10-20T16:36:02;10.10;;;6.47;;
38725;SDS011;24474;48.906;8.808;2022-10-20T16:38:29;12.05;;;8.38;;
38725;SDS011;24474;48.906;8.808;2022-10-20T16:40:58;12.57;;;9.63;;
38725;SDS011;24474;48.906;8.808;2022-10-20T16:43:26;12.77;;;7.80;;
38725;SDS011;24474;48.906;8.808;2022-10-20T16:45:52;14.68;;;7.18;;
38725;SDS011;24474;48.906;8.808;2022-10-20T16:48:23;12.70;;;9.15;;
38725;SDS011;24474;48.906;8.808;2022-10-20T16:50:49;8.32;;;6.90;;
38725;SDS011;24474;48.906;8.808;2022-10-20T16:53:15;10.00;;;6.40;;
38725;SDS011;24474;48.906;8.808;2022-10-20T16:55:55;13.43;;;8.40;;
38725;SDS011;24474;48.906;8.808;2022-10-20T16:58:22;14.00;;;8.43;;
38725;SDS011;24474;48.906;8.808;2022-10-20T17:00:55;10.30;;;6.15;;
38725;SDS011;24474;48.906;8.808;2022-10-20T17:03:34;11.38;;;6.70;;
38725;SDS011;24474;48.906;8.808;2022-10-20T17:06:03;13.05;;;7.90;;
38725;SDS011;24474;48.906;8.808;2022-10-20T17:08:35;11.77;;;8.13;;
38725;SDS011;24474;48.906;8.808;2022-10-20T17:11:17;13.32;;;7.75;;
38725;SDS011;24474;48.906;8.808;2022-10-20T17:13:48;10.18;;;6.50;;